Time;durP1;ratioP1;P1;durP2;ratioP2;P2;SDS_P1;SDS_P2;PMS_P1;PMS_P2;Temp;Humidity;BMP_temperature;BMP_pressure;BME280_temperature;BME280_humidity;BME280_pressure;Samples;Min_cycle;Max_cycle;Signal;HPM_P1;HPM_P2
2023/05/30 00:01:30;;;;;;;4.72;2.13;;;19.20;57.50;;;;;;13013181;22;20076;-56
2023/05/30 00:06:31;;;;;;;5.65;1.90;;;19.20;57.50;;;;;;13012560;22;20141;-57
2023/05/30 00:11:32;;;;;;;7.05;1.63;;;19.20;57.50;;;;;;13013408;22;20450;-58
2023/05/30 00:16:34;;;;;;;5.55;1.90;;;19.20;57.40;;;;;;13039880;22;20037;-57
2023/05/30 00:21:35;;;;;;;3.95;1.65;;;19.20;57.40;;;;;;13012745;22;19999;-57
2023/05/30 00:26:36;;;;;;;6.60;2.25;;;19.20;57.30;;;;;;13012474;22;20013;-57
2023/05/30 00:31:36;;;;;;;10.35;3.22;;;19.10;57.40;;;;;;13015889;22;20394;-57
2023/05/30 00:36:37;;;;;;;7.15;2.28;;;19.20;58.00;;;;;;13043684;22;20074;-57
2023/05/30 00:41:37;;;;;;;5.10;2.08;;;19.10;57.30;;;;;;13015705;22;20011;-57
2023/05/30 00:46:39;;;;;;;7.07;1.88;;;19.10;57.30;;;;;;13016080;22;20296;-57
2023/05/30 00:51:40;;;;;;;7.10;2.22;;;19.10;57.40;;;;;;13015996;22;20118;-56
2023/05/30 00:56:41;;;;;;;4.47;1.75;;;19.10;57.40;;;;;;13016023;22;20095;-56
2023/05/30 01:01:43;;;;;;;4.55;1.70;;;19.10;57.40;;;;;;12989852;22;20003;-57
2023/05/30 01:06:46;;;;;;;4.43;2.20;;;19.10;57.40;;;;;;13015986;22;20008;-56
2023/05/30 01:12:03;;;;;;;5.55;2.28;;;19.10;57.40;;;;;;13043268;22;19999;-57
2023/05/30 01:17:27;;;;;;;3.65;1.67;;;19.10;57.40;;;;;;13042698;22;19999;-57
2023/05/30 01:22:57;;;;;;;4.55;1.75;;;19.00;57.30;;;;;;13017968;22;20415;-57
2023/05/30 01:28:20;;;;;;;4.45;2.65;;;19.00;57.40;;;;;;13042756;22;20128;-56
2023/05/30 01:33:23;;;;;;;6.68;2.15;;;19.00;57.50;;;;;;13015553;22;20081;-57
2023/05/30 01:38:23;;;;;;;5.45;1.95;;;19.00;57.70;;;;;;13015556;22;20078;-56
2023/05/30 01:44:17;;;;;;;3.55;1.40;;;19.00;57.60;;;;;;13014187;22;20090;-56
2023/05/30 01:49:42;;;;;;;4.82;2.30;;;19.00;57.60;;;;;;12660424;23;19998;-57
2023/05/30 01:54:49;;;;;;;6.55;1.77;;;18.90;57.40;;;;;;12969916;22;20106;-56
2023/05/30 01:59:51;;;;;;;5.07;1.58;;;19.00;57.60;;;;;;12989658;22;20373;-57
2023/05/30 02:04:52;;;;;;;10.45;2.58;;;18.90;57.70;;;;;;13014569;22;20096;-57
2023/05/30 02:09:53;;;;;;;7.68;1.95;;;18.90;57.70;;;;;;13041755;22;20018;-57
2023/05/30 02:14:54;;;;;;;8.57;2.30;;;18.90;57.80;;;;;;13014311;22;19995;-57
2023/05/30 02:19:55;;;;;;;4.95;1.67;;;18.90;57.90;;;;;;13041901;22;20318;-56
2023/05/30 02:24:57;;;;;;;6.90;2.35;;;18.90;57.70;;;;;;13041420;22;20035;-57
2023/05/30 02:29:57;;;;;;;3.90;1.67;;;18.90;57.80;;;;;;12988507;22;20040;-57
2023/05/30 02:34:58;;;;;;;5.88;1.80;;;18.90;57.70;;;;;;13013835;22;19995;-56
2023/05/30 02:39:59;;;;;;;4.93;1.67;;;18.90;57.70;;;;;;13041257;22;19995;-57
2023/05/30 02:44:59;;;;;;;4.80;1.98;;;18.80;57.80;;;;;;13040398;22;20007;-57
2023/05/30 02:50:00;;;;;;;4.78;1.20;;;18.80;58.10;;;;;;13040825;22;19992;-56
2023/05/30 02:55:01;;;;;;;4.35;1.58;;;18.80;57.90;;;;;;12987987;22;20462;-55
2023/05/30 03:00:02;;;;;;;6.13;1.60;;;18.80;57.80;;;;;;13013281;22;20767;-56
2023/05/30 03:05:03;;;;;;;5.78;1.80;;;18.80;58.00;;;;;;12987673;22;20003;-57
2023/05/30 03:10:04;;;;;;;7.00;2.20;;;18.80;58.10;;;;;;13010333;22;20013;-57
2023/05/30 03:15:06;;;;;;;4.00;1.80;;;18.80;58.40;;;;;;13011896;22;19999;-57
2023/05/30 03:20:08;;;;;;;3.35;1.80;;;18.80;58.30;;;;;;13012883;22;20078;-57
2023/05/30 03:25:08;;;;;;;3.30;1.88;;;18.80;58.50;;;;;;13013164;22;20007;-57
2023/05/30 03:30:10;;;;;;;5.60;1.85;;;18.80;58.40;;;;;;12987174;22;20000;-57
2023/05/30 03:35:11;;;;;;;7.10;2.75;;;18.80;58.50;;;;;;13011020;22;20052;-57
2023/05/30 03:40:12;;;;;;;4.13;1.92;;;18.80;59.10;;;;;;13010017;22;20018;-57
2023/05/30 03:45:12;;;;;;;3.88;1.63;;;18.90;58.20;;;;;;13009756;22;20007;-57
2023/05/30 03:50:13;;;;;;;6.82;1.90;;;19.00;58.10;;;;;;13010789;22;20322;-56
